sensor_id;sensor_type;location;lat;lon;timestamp;P1;durP1;ratioP1;P2;durP2;ratioP2
21621;SDS011;10973;46.706;12.340;2022-12-19T00:01:53;2.87;;;2.57;;
21621;SDS011;10973;46.706;12.340;2022-12-19T00:04:20;3.53;;;3.00;;
21621;SDS011;10973;46.706;12.340;2022-12-19T00:06:48;4.40;;;2.80;;
21621;SDS011;10973;46.706;12.340;2022-12-19T00:09:15;3.73;;;3.40;;
21621;SDS011;10973;46.706;12.340;2022-12-19T00:11:43;3.40;;;3.10;;
21621;SDS011;10973;46.706;12.340;2022-12-19T00:14:12;3.43;;;3.13;;
21621;SDS011;10973;46.706;12.340;2022-12-19T00:16:40;3.23;;;2.93;;
21621;SDS011;10973;46.706;12.340;2022-12-19T00:19:08;3.23;;;2.97;;
21621;SDS011;10973;46.706;12.340;2022-12-19T00:21:37;3.27;;;2.97;;
21621;SDS011;10973;46.706;12.340;2022-12-19T00:24:05;3.23;;;2.80;;
21621;SDS011;10973;46.706;12.340;2022-12-19T00:26:46;2.73;;;2.53;;
21621;SDS011;10973;46.706;12.340;2022-12-19T00:29:15;3.30;;;2.37;;
21621;SDS011;10973;46.706;12.340;2022-12-19T00:31:42;3.50;;;3.13;;
21621;SDS011;10973;46.706;12.340;2022-12-19T00:34:09;3.37;;;3.07;;
21621;SDS011;10973;46.706;12.340;2022-12-19T00:36:37;4.37;;;2.83;;
21621;SDS011;10973;46.706;12.340;2022-12-19T00:39:04;3.13;;;2.80;;
21621;SDS011;10973;46.706;12.340;2022-12-19T00:41:34;3.20;;;2.93;;
21621;SDS011;10973;46.706;12.340;2022-12-19T00:44:08;3.60;;;3.30;;
21621;SDS011;10973;46.706;12.340;2022-12-19T00:46:40;3.73;;;3.23;;
21621;SDS011;10973;46.706;12.340;2022-12-19T00:49:09;4.67;;;3.30;;
21621;SDS011;10973;46.706;12.340;2022-12-19T00:51:36;3.67;;;3.43;;
21621;SDS011;10973;46.706;12.340;2022-12-19T00:54:04;3.30;;;3.00;;
21621;SDS011;10973;46.706;12.340;2022-12-19T00:56:33;5.90;;;3.17;;
21621;SDS011;10973;46.706;12.340;2022-12-19T00:59:03;4.03;;;3.13;;
21621;SDS011;10973;46.706;12.340;2022-12-19T01:01:32;3.70;;;3.13;;
21621;SDS011;10973;46.706;12.340;2022-12-19T01:04:03;3.20;;;3.00;;
21621;SDS011;10973;46.706;12.340;2022-12-19T01:06:52;3.30;;;3.10;;
21621;SDS011;10973;46.706;12.340;2022-12-19T01:09:28;4.27;;;3.30;;
21621;SDS011;10973;46.706;12.340;2022-12-19T01:11:56;5.60;;;3.43;;
21621;SDS011;10973;46.706;12.340;2022-12-19T01:14:24;3.20;;;2.90;;
21621;SDS011;10973;46.706;12.340;2022-12-19T01:16:51;3.60;;;3.30;;
21621;SDS011;10973;46.706;12.340;2022-12-19T01:19:19;5.73;;;4.73;;
21621;SDS011;10973;46.706;12.340;2022-12-19T01:21:46;4.40;;;4.00;;
21621;SDS011;10973;46.706;12.340;2022-12-19T01:24:13;4.13;;;3.73;;
21621;SDS011;10973;46.706;12.340;2022-12-19T01:26:44;3.40;;;3.10;;
21621;SDS011;10973;46.706;12.340;2022-12-19T01:29:11;6.83;;;3.97;;
21621;SDS011;10973;46.706;12.340;2022-12-19T01:31:39;4.37;;;3.80;;
21621;SDS011;10973;46.706;12.340;2022-12-19T01:34:06;3.90;;;3.47;;
21621;SDS011;10973;46.706;12.340;2022-12-19T01:36:33;3.80;;;3.40;;
21621;SDS011;10973;46.706;12.340;2022-12-19T01:39:06;3.17;;;2.80;;
21621;SDS011;10973;46.706;12.340;2022-12-19T01:41:33;3.33;;;3.10;;
21621;SDS011;10973;46.706;12.340;2022-12-19T01:44:03;5.70;;;3.23;;
21621;SDS011;10973;46.706;12.340;2022-12-19T01:46:34;3.37;;;2.83;;
21621;SDS011;10973;46.706;12.340;2022-12-19T01:49:34;3.20;;;2.90;;
21621;SDS011;10973;46.706;12.340;2022-12-19T01:52:04;3.33;;;3.10;;
21621;SDS011;10973;46.706;12.340;2022-12-19T01:54:40;3.87;;;3.37;;
21621;SDS011;10973;46.706;12.340;2022-12-19T01:57:08;3.40;;;3.10;;
21621;SDS011;10973;46.706;12.340;2022-12-19T01:59:42;3.40;;;3.10;;
21621;SDS011;10973;46.706;12.340;2022-12-19T02:02:19;3.43;;;3.10;;
21621;SDS011;10973;46.706;12.340;2022-12-19T02:04:54;4.93;;;3.30;;
21621;SDS011;10973;46.706;12.340;2022-12-19T02:07:22;4.40;;;3.03;;
21621;SDS011;10973;46.706;12.340;2022-12-19T02:09:52;3.30;;;3.00;;
21621;SDS011;10973;46.706;12.340;2022-12-19T02:12:23;3.27;;;2.97;;
21621;SDS011;10973;46.706;12.340;2022-12-19T02:14:52;3.53;;;3.10;;
21621;SDS011;10973;46.706;12.340;2022-12-19T02:26:59;4.03;;;3.10;;
21621;SDS011;10973;46.706;12.340;2022-12-19T02:38:09;3.07;;;2.87;;
21621;SDS011;10973;46.706;12.340;2022-12-19T02:41:06;3.70;;;3.30;;
21621;SDS011;10973;46.706;12.340;2022-12-19T02:43:35;3.20;;;2.93;;
21621;SDS011;10973;46.706;12.340;2022-12-19T02:46:07;2.80;;;2.50;;
21621;SDS011;10973;46.706;12.340;2022-12-19T02:48:37;5.50;;;2.93;;
21621;SDS011;10973;46.706;12.340;2022-12-19T02:51:06;3.80;;;3.07;;
21621;SDS011;10973;46.706;12.340;2022-12-19T02:53:34;4.10;;;3.03;;
21621;SDS011;10973;46.706;12.340;2022-12-19T02:56:10;2.83;;;2.63;;
21621;SDS011;10973;46.706;12.340;2022-12-19T03:02:17;5.60;;;3.40;;
21621;SDS011;10973;46.706;12.340;2022-12-19T03:11:21;3.67;;;3.20;;
21621;SDS011;10973;46.706;12.340;2022-12-19T03:14:13;3.87;;;3.23;;
21621;SDS011;10973;46.706;12.340;2022-12-19T03:16:46;4.00;;;3.53;;
21621;SDS011;10973;46.706;12.340;2022-12-19T03:19:13;3.37;;;3.17;;
21621;SDS011;10973;46.706;12.340;2022-12-19T03:21:43;3.43;;;3.17;;
21621;SDS011;10973;46.706;12.340;2022-12-19T03:24:13;4.70;;;3.63;;
21621;SDS011;10973;46.706;12.340;2022-12-19T03:29:32;4.10;;;3.70;;
21621;SDS011;10973;46.706;12.340;2022-12-19T03:32:08;3.77;;;3.27;;
21621;SDS011;10973;46.706;12.340;2022-12-19T03:37:09;6.37;;;3.40;;
21621;SDS011;10973;46.706;12.340;2022-12-19T03:39:45;4.40;;;3.50;;
21621;SDS011;10973;46.706;12.340;2022-12-19T03:42:20;7.03;;;3.60;;
21621;SDS011;10973;46.706;12.340;2022-12-19T03:44:51;4.37;;;3.70;;
21621;SDS011;10973;46.706;12.340;2022-12-19T03:47:25;4.20;;;3.80;;
21621;SDS011;10973;46.706;12.340;2022-12-19T03:50:03;3.97;;;3.67;;
21621;SDS011;10973;46.706;12.340;2022-12-19T03:52:40;4.43;;;4.00;;
21621;SDS011;10973;46.706;12.340;2022-12-19T03:55:33;4.50;;;4.10;;
21621;SDS011;10973;46.706;12.340;2022-12-19T03:58:31;4.73;;;4.13;;
21621;SDS011;10973;46.706;12.340;2022-12-19T04:01:03;5.20;;;3.97;;
21621;SDS011;10973;46.706;12.340;2022-12-19T04:03:32;5.70;;;4.80;;
21621;SDS011;10973;46.706;12.340;2022-12-19T04:06:01;6.53;;;5.77;;
21621;SDS011;10973;46.706;12.340;2022-12-19T04:08:29;7.00;;;5.50;;
21621;SDS011;10973;46.706;12.340;2022-12-19T04:11:06;6.50;;;4.77;;
21621;SDS011;10973;46.706;12.340;2022-12-19T04:13:44;6.80;;;5.20;;
21621;SDS011;10973;46.706;12.340;2022-12-19T04:16:22;6.13;;;3.97;;
21621;SDS011;10973;46.706;12.340;2022-12-19T04:18:55;6.40;;;3.97;;
21621;SDS011;10973;46.706;12.340;2022-12-19T04:21:34;5.57;;;4.73;;
21621;SDS011;10973;46.706;12.340;2022-12-19T04:24:17;6.07;;;3.90;;
21621;SDS011;10973;46.706;12.340;2022-12-19T04:26:53;5.93;;;4.43;;
21621;SDS011;10973;46.706;12.340;2022-12-19T04:29:24;5.90;;;4.33;;
21621;SDS011;10973;46.706;12.340;2022-12-19T04:31:56;6.37;;;5.00;;
21621;SDS011;10973;46.706;12.340;2022-12-19T04:34:24;5.97;;;4.87;;
21621;SDS011;10973;46.706;12.340;2022-12-19T04:36:51;5.37;;;4.60;;
21621;SDS011;10973;46.706;12.340;2022-12-19T04:39:19;6.73;;;4.43;;
21621;SDS011;10973;46.706;12.340;2022-12-19T04:41:46;6.50;;;5.10;;
21621;SDS011;10973;46.706;12.340;2022-12-19T04:44:13;7.63;;;5.67;;
21621;SDS011;10973;46.706;12.340;2022-12-19T04:46:40;5.43;;;4.20;;
21621;SDS011;10973;46.706;12.340;2022-12-19T04:49:07;5.60;;;4.90;;
21621;SDS011;10973;46.706;12.340;2022-12-19T04:51:35;7.27;;;4.77;;
21621;SDS011;10973;46.706;12.340;2022-12-19T04:54:02;7.17;;;4.97;;
21621;SDS011;10973;46.706;12.340;2022-12-19T04:56:30;5.03;;;4.53;;
21621;SDS011;10973;46.706;12.340;2022-12-19T04:58:57;4.43;;;4.03;;
21621;SDS011;10973;46.706;12.340;2022-12-19T05:01:25;7.53;;;4.80;;
21621;SDS011;10973;46.706;12.340;2022-12-19T05:03:53;4.50;;;3.93;;
21621;SDS011;10973;46.706;12.340;2022-12-19T05:06:28;7.07;;;4.17;;
21621;SDS011;10973;46.706;12.340;2022-12-19T05:08:55;6.80;;;5.20;;
21621;SDS011;10973;46.706;12.340;2022-12-19T05:11:22;9.53;;;5.90;;
21621;SDS011;10973;46.706;12.340;2022-12-19T05:13:59;8.17;;;6.70;;
21621;SDS011;10973;46.706;12.340;2022-12-19T05:16:26;10.03;;;7.03;;
21621;SDS011;10973;46.706;12.340;2022-12-19T05:18:54;9.33;;;6.87;;
21621;SDS011;10973;46.706;12.340;2022-12-19T05:21:21;8.97;;;7.37;;
21621;SDS011;10973;46.706;12.340;2022-12-19T05:23:49;10.07;;;7.63;;
21621;SDS011;10973;46.706;12.340;2022-12-19T05:26:17;8.83;;;6.60;;
21621;SDS011;10973;46.706;12.340;2022-12-19T05:28:44;8.67;;;6.20;;
21621;SDS011;10973;46.706;12.340;2022-12-19T05:31:13;5.60;;;4.90;;
21621;SDS011;10973;46.706;12.340;2022-12-19T05:33:44;6.80;;;5.67;;
21621;SDS011;10973;46.706;12.340;2022-12-19T05:36:14;10.53;;;6.37;;
21621;SDS011;10973;46.706;12.340;2022-12-19T05:38:43;11.83;;;8.47;;
21621;SDS011;10973;46.706;12.340;2022-12-19T05:41:15;12.93;;;8.33;;
21621;SDS011;10973;46.706;12.340;2022-12-19T05:43:47;12.97;;;8.23;;
21621;SDS011;10973;46.706;12.340;2022-12-19T05:46:18;11.83;;;7.47;;
21621;SDS011;10973;46.706;12.340;2022-12-19T05:48:46;10.13;;;7.73;;
21621;SDS011;10973;46.706;12.340;2022-12-19T05:51:15;14.60;;;9.10;;
21621;SDS011;10973;46.706;12.340;2022-12-19T05:53:42;16.13;;;10.70;;
21621;SDS011;10973;46.706;12.340;2022-12-19T05:56:12;41.73;;;25.33;;
21621;SDS011;10973;46.706;12.340;2022-12-19T05:58:43;66.80;;;35.80;;
21621;SDS011;10973;46.706;12.340;2022-12-19T06:01:16;71.57;;;35.77;;
21621;SDS011;10973;46.706;12.340;2022-12-19T06:03:46;24.20;;;17.07;;
21621;SDS011;10973;46.706;12.340;2022-12-19T06:06:16;16.93;;;12.50;;
21621;SDS011;10973;46.706;12.340;2022-12-19T06:08:52;13.73;;;10.77;;
21621;SDS011;10973;46.706;12.340;2022-12-19T06:11:22;13.97;;;10.30;;
21621;SDS011;10973;46.706;12.340;2022-12-19T06:13:51;14.53;;;11.93;;
21621;SDS011;10973;46.706;12.340;2022-12-19T06:16:20;11.93;;;8.93;;
21621;SDS011;10973;46.706;12.340;2022-12-19T06:18:49;11.03;;;7.80;;
21621;SDS011;10973;46.706;12.340;2022-12-19T06:21:20;9.83;;;7.47;;
21621;SDS011;10973;46.706;12.340;2022-12-19T06:23:48;11.03;;;8.60;;
21621;SDS011;10973;46.706;12.340;2022-12-19T06:26:16;18.07;;;11.43;;
21621;SDS011;10973;46.706;12.340;2022-12-19T06:28:47;16.37;;;11.43;;
21621;SDS011;10973;46.706;12.340;2022-12-19T06:31:15;14.83;;;9.90;;
21621;SDS011;10973;46.706;12.340;2022-12-19T06:33:43;12.90;;;9.97;;
21621;SDS011;10973;46.706;12.340;2022-12-19T06:36:24;17.70;;;9.63;;
21621;SDS011;10973;46.706;12.340;2022-12-19T06:38:55;12.53;;;9.87;;
21621;SDS011;10973;46.706;12.340;2022-12-19T06:41:23;13.60;;;9.90;;
21621;SDS011;10973;46.706;12.340;2022-12-19T06:43:59;15.53;;;11.43;;
21621;SDS011;10973;46.706;12.340;2022-12-19T06:46:29;22.20;;;14.27;;
21621;SDS011;10973;46.706;12.340;2022-12-19T06:48:57;30.43;;;17.23;;
21621;SDS011;10973;46.706;12.340;2022-12-19T06:51:25;31.70;;;20.27;;
21621;SDS011;10973;46.706;12.340;2022-12-19T06:53:53;38.30;;;24.30;;
21621;SDS011;10973;46.706;12.340;2022-12-19T06:56:20;21.57;;;14.30;;
21621;SDS011;10973;46.706;12.340;2022-12-19T06:58:48;15.30;;;12.13;;
21621;SDS011;10973;46.706;12.340;2022-12-19T07:01:22;16.37;;;12.60;;
21621;SDS011;10973;46.706;12.340;2022-12-19T07:04:17;20.87;;;15.23;;
21621;SDS011;10973;46.706;12.340;2022-12-19T07:06:52;19.27;;;13.17;;
21621;SDS011;10973;46.706;12.340;2022-12-19T07:09:20;25.33;;;14.97;;
21621;SDS011;10973;46.706;12.340;2022-12-19T07:11:47;29.30;;;20.93;;
21621;SDS011;10973;46.706;12.340;2022-12-19T07:14:14;23.70;;;15.97;;
21621;SDS011;10973;46.706;12.340;2022-12-19T07:16:41;24.47;;;16.47;;
21621;SDS011;10973;46.706;12.340;2022-12-19T07:19:09;35.23;;;19.93;;
21621;SDS011;10973;46.706;12.340;2022-12-19T07:21:37;28.23;;;18.63;;
21621;SDS011;10973;46.706;12.340;2022-12-19T07:24:05;26.37;;;18.50;;
21621;SDS011;10973;46.706;12.340;2022-12-19T07:26:34;26.93;;;19.40;;
21621;SDS011;10973;46.706;12.340;2022-12-19T07:29:03;21.37;;;14.07;;
21621;SDS011;10973;46.706;12.340;2022-12-19T07:31:32;27.40;;;20.10;;
21621;SDS011;10973;46.706;12.340;2022-12-19T07:33:59;25.17;;;19.13;;
21621;SDS011;10973;46.706;12.340;2022-12-19T07:36:26;29.23;;;20.17;;
21621;SDS011;10973;46.706;12.340;2022-12-19T07:38:53;29.90;;;20.17;;
21621;SDS011;10973;46.706;12.340;2022-12-19T07:41:20;26.60;;;18.90;;
21621;SDS011;10973;46.706;12.340;2022-12-19T07:43:48;34.80;;;22.37;;
21621;SDS011;10973;46.706;12.340;2022-12-19T07:46:15;33.50;;;23.33;;
21621;SDS011;10973;46.706;12.340;2022-12-19T07:48:42;32.07;;;21.83;;
21621;SDS011;10973;46.706;12.340;2022-12-19T07:51:09;33.27;;;22.70;;
21621;SDS011;10973;46.706;12.340;2022-12-19T07:53:36;28.13;;;19.73;;
21621;SDS011;10973;46.706;12.340;2022-12-19T07:56:04;27.37;;;18.20;;
21621;SDS011;10973;46.706;12.340;2022-12-19T07:58:32;27.00;;;19.57;;
21621;SDS011;10973;46.706;12.340;2022-12-19T08:00:59;32.80;;;21.03;;
21621;SDS011;10973;46.706;12.340;2022-12-19T08:03:27;30.23;;;21.17;;
21621;SDS011;10973;46.706;12.340;2022-12-19T08:06:00;34.23;;;24.50;;
21621;SDS011;10973;46.706;12.340;2022-12-19T08:08:31;31.27;;;21.80;;
21621;SDS011;10973;46.706;12.340;2022-12-19T08:11:16;32.00;;;22.23;;
21621;SDS011;10973;46.706;12.340;2022-12-19T08:13:46;32.23;;;21.07;;
21621;SDS011;10973;46.706;12.340;2022-12-19T08:16:14;35.27;;;23.20;;
21621;SDS011;10973;46.706;12.340;2022-12-19T08:18:41;29.50;;;20.47;;
21621;SDS011;10973;46.706;12.340;2022-12-19T08:21:09;27.47;;;20.23;;
21621;SDS011;10973;46.706;12.340;2022-12-19T08:23:36;30.83;;;21.23;;
21621;SDS011;10973;46.706;12.340;2022-12-19T08:26:05;28.07;;;20.07;;
21621;SDS011;10973;46.706;12.340;2022-12-19T08:28:37;27.53;;;19.80;;
21621;SDS011;10973;46.706;12.340;2022-12-19T08:31:09;26.80;;;19.57;;
21621;SDS011;10973;46.706;12.340;2022-12-19T08:33:40;30.60;;;17.17;;
21621;SDS011;10973;46.706;12.340;2022-12-19T08:36:11;26.73;;;17.70;;
21621;SDS011;10973;46.706;12.340;2022-12-19T08:38:41;35.00;;;18.40;;
21621;SDS011;10973;46.706;12.340;2022-12-19T08:41:08;24.80;;;17.83;;
21621;SDS011;10973;46.706;12.340;2022-12-19T08:43:36;29.30;;;19.33;;
21621;SDS011;10973;46.706;12.340;2022-12-19T08:46:03;26.43;;;18.53;;
21621;SDS011;10973;46.706;12.340;2022-12-19T08:48:32;26.13;;;19.10;;
21621;SDS011;10973;46.706;12.340;2022-12-19T08:51:02;26.47;;;17.90;;
21621;SDS011;10973;46.706;12.340;2022-12-19T08:53:34;23.00;;;16.87;;
21621;SDS011;10973;46.706;12.340;2022-12-19T08:56:05;34.57;;;20.77;;
21621;SDS011;10973;46.706;12.340;2022-12-19T08:58:37;60.13;;;33.13;;
21621;SDS011;10973;46.706;12.340;2022-12-19T09:01:06;127.50;;;55.07;;
21621;SDS011;10973;46.706;12.340;2022-12-19T09:03:36;194.90;;;75.70;;
21621;SDS011;10973;46.706;12.340;2022-12-19T09:06:24;78.93;;;37.23;;
21621;SDS011;10973;46.706;12.340;2022-12-19T09:08:52;135.87;;;55.17;;
21621;SDS011;10973;46.706;12.340;2022-12-19T09:11:25;99.60;;;46.40;;
21621;SDS011;10973;46.706;12.340;2022-12-19T09:13:54;47.50;;;27.77;;
21621;SDS011;10973;46.706;12.340;2022-12-19T09:16:23;42.03;;;23.33;;
21621;SDS011;10973;46.706;12.340;2022-12-19T09:18:54;33.93;;;21.63;;
21621;SDS011;10973;46.706;12.340;2022-12-19T09:21:23;40.30;;;23.97;;
21621;SDS011;10973;46.706;12.340;2022-12-19T09:23:52;28.47;;;18.67;;
21621;SDS011;10973;46.706;12.340;2022-12-19T09:26:32;17.73;;;12.10;;
21621;SDS011;10973;46.706;12.340;2022-12-19T09:29:01;14.73;;;11.87;;
21621;SDS011;10973;46.706;12.340;2022-12-19T09:31:44;23.60;;;16.43;;
21621;SDS011;10973;46.706;12.340;2022-12-19T09:34:12;31.90;;;18.83;;
21621;SDS011;10973;46.706;12.340;2022-12-19T09:36:39;17.67;;;13.77;;
21621;SDS011;10973;46.706;12.340;2022-12-19T09:39:06;22.10;;;14.57;;
21621;SDS011;10973;46.706;12.340;2022-12-19T09:47:58;22.57;;;16.33;;
21621;SDS011;10973;46.706;12.340;2022-12-19T09:50:29;33.37;;;22.50;;
21621;SDS011;10973;46.706;12.340;2022-12-19T09:53:06;23.23;;;16.57;;
21621;SDS011;10973;46.706;12.340;2022-12-19T09:56:02;21.00;;;14.63;;
21621;SDS011;10973;46.706;12.340;2022-12-19T09:58:42;24.80;;;15.07;;
21621;SDS011;10973;46.706;12.340;2022-12-19T10:01:25;21.63;;;15.13;;
21621;SDS011;10973;46.706;12.340;2022-12-19T10:04:05;25.43;;;17.33;;
21621;SDS011;10973;46.706;12.340;2022-12-19T10:06:38;26.53;;;16.50;;
21621;SDS011;10973;46.706;12.340;2022-12-19T10:09:30;37.10;;;24.40;;
21621;SDS011;10973;46.706;12.340;2022-12-19T10:12:31;39.47;;;27.40;;
21621;SDS011;10973;46.706;12.340;2022-12-19T10:20:45;34.23;;;23.27;;
21621;SDS011;10973;46.706;12.340;2022-12-19T10:27:14;49.57;;;33.63;;
21621;SDS011;10973;46.706;12.340;2022-12-19T10:30:30;56.40;;;36.60;;
21621;SDS011;10973;46.706;12.340;2022-12-19T10:35:51;47.17;;;32.27;;
21621;SDS011;10973;46.706;12.340;2022-12-19T10:38:31;37.43;;;26.40;;
21621;SDS011;10973;46.706;12.340;2022-12-19T10:41:23;29.37;;;20.07;;
21621;SDS011;10973;46.706;12.340;2022-12-19T10:44:01;32.23;;;21.97;;
21621;SDS011;10973;46.706;12.340;2022-12-19T10:46:45;36.03;;;23.73;;
21621;SDS011;10973;46.706;12.340;2022-12-19T10:49:19;39.27;;;24.60;;
21621;SDS011;10973;46.706;12.340;2022-12-19T10:52:06;48.07;;;39.43;;
21621;SDS011;10973;46.706;12.340;2022-12-19T10:54:37;49.67;;;38.40;;
21621;SDS011;10973;46.706;12.340;2022-12-19T10:57:18;49.40;;;36.37;;
21621;SDS011;10973;46.706;12.340;2022-12-19T10:59:59;51.33;;;35.60;;
21621;SDS011;10973;46.706;12.340;2022-12-19T11:02:33;50.17;;;33.83;;
21621;SDS011;10973;46.706;12.340;2022-12-19T11:05:23;44.77;;;30.93;;
21621;SDS011;10973;46.706;12.340;2022-12-19T11:10:52;56.37;;;38.27;;
21621;SDS011;10973;46.706;12.340;2022-12-19T11:13:46;50.80;;;33.40;;
21621;SDS011;10973;46.706;12.340;2022-12-19T11:16:34;40.77;;;27.63;;
21621;SDS011;10973;46.706;12.340;2022-12-19T11:19:29;36.07;;;27.00;;
21621;SDS011;10973;46.706;12.340;2022-12-19T11:22:21;33.67;;;24.47;;
21621;SDS011;10973;46.706;12.340;2022-12-19T11:25:21;25.93;;;18.37;;
21621;SDS011;10973;46.706;12.340;2022-12-19T11:28:31;18.77;;;14.10;;
21621;SDS011;10973;46.706;12.340;2022-12-19T11:31:22;16.33;;;12.00;;
21621;SDS011;10973;46.706;12.340;2022-12-19T11:34:21;17.83;;;11.00;;
21621;SDS011;10973;46.706;12.340;2022-12-19T11:36:51;24.57;;;17.17;;
21621;SDS011;10973;46.706;12.340;2022-12-19T11:55:21;37.83;;;26.30;;
21621;SDS011;10973;46.706;12.340;2022-12-19T11:58:01;33.67;;;23.20;;
21621;SDS011;10973;46.706;12.340;2022-12-19T12:00:29;19.87;;;14.50;;
21621;SDS011;10973;46.706;12.340;2022-12-19T12:06:29;18.20;;;13.43;;
21621;SDS011;10973;46.706;12.340;2022-12-19T12:22:17;12.00;;;8.67;;
21621;SDS011;10973;46.706;12.340;2022-12-19T12:32:16;14.27;;;10.17;;
21621;SDS011;10973;46.706;12.340;2022-12-19T12:35:37;15.03;;;10.67;;
21621;SDS011;10973;46.706;12.340;2022-12-19T12:44:47;19.13;;;11.13;;
21621;SDS011;10973;46.706;12.340;2022-12-19T12:47:24;15.47;;;11.20;;
21621;SDS011;10973;46.706;12.340;2022-12-19T12:50:00;20.13;;;12.40;;
21621;SDS011;10973;46.706;12.340;2022-12-19T12:52:34;18.43;;;12.27;;
21621;SDS011;10973;46.706;12.340;2022-12-19T12:58:01;22.90;;;15.33;;
21621;SDS011;10973;46.706;12.340;2022-12-19T13:00:31;29.13;;;16.20;;
21621;SDS011;10973;46.706;12.340;2022-12-19T13:10:58;18.33;;;13.23;;
21621;SDS011;10973;46.706;12.340;2022-12-19T13:19:13;25.80;;;19.47;;
21621;SDS011;10973;46.706;12.340;2022-12-19T13:41:28;16.57;;;13.37;;
21621;SDS011;10973;46.706;12.340;2022-12-19T13:44:06;18.47;;;13.40;;
21621;SDS011;10973;46.706;12.340;2022-12-19T13:46:38;21.70;;;14.17;;
21621;SDS011;10973;46.706;12.340;2022-12-19T13:49:10;25.50;;;18.73;;
21621;SDS011;10973;46.706;12.340;2022-12-19T13:52:00;25.97;;;19.40;;
21621;SDS011;10973;46.706;12.340;2022-12-19T13:54:31;35.50;;;25.70;;
21621;SDS011;10973;46.706;12.340;2022-12-19T13:57:20;36.60;;;23.90;;
21621;SDS011;10973;46.706;12.340;2022-12-19T13:59:51;28.67;;;19.73;;
21621;SDS011;10973;46.706;12.340;2022-12-19T14:02:33;25.60;;;17.67;;
21621;SDS011;10973;46.706;12.340;2022-12-19T14:05:20;23.43;;;16.80;;
21621;SDS011;10973;46.706;12.340;2022-12-19T14:08:15;24.60;;;16.47;;
21621;SDS011;10973;46.706;12.340;2022-12-19T14:10:48;21.90;;;16.47;;
21621;SDS011;10973;46.706;12.340;2022-12-19T14:13:41;24.57;;;17.17;;
21621;SDS011;10973;46.706;12.340;2022-12-19T14:16:28;23.10;;;15.00;;
21621;SDS011;10973;46.706;12.340;2022-12-19T14:22:17;24.27;;;16.77;;
21621;SDS011;10973;46.706;12.340;2022-12-19T14:27:52;10.70;;;8.30;;
21621;SDS011;10973;46.706;12.340;2022-12-19T14:30:47;26.40;;;20.47;;
21621;SDS011;10973;46.706;12.340;2022-12-19T14:33:35;31.33;;;20.10;;
21621;SDS011;10973;46.706;12.340;2022-12-19T14:36:32;27.03;;;16.30;;
21621;SDS011;10973;46.706;12.340;2022-12-19T14:39:04;32.33;;;20.07;;
21621;SDS011;10973;46.706;12.340;2022-12-19T14:41:52;80.23;;;51.17;;
21621;SDS011;10973;46.706;12.340;2022-12-19T14:47:47;25.00;;;17.93;;
21621;SDS011;10973;46.706;12.340;2022-12-19T14:50:36;30.97;;;20.23;;
21621;SDS011;10973;46.706;12.340;2022-12-19T14:53:24;30.43;;;19.93;;
21621;SDS011;10973;46.706;12.340;2022-12-19T14:59:01;39.47;;;26.10;;
21621;SDS011;10973;46.706;12.340;2022-12-19T15:01:30;43.10;;;29.13;;
21621;SDS011;10973;46.706;12.340;2022-12-19T15:04:12;37.87;;;25.57;;
21621;SDS011;10973;46.706;12.340;2022-12-19T15:07:07;34.97;;;23.57;;
21621;SDS011;10973;46.706;12.340;2022-12-19T15:15:44;28.37;;;18.10;;
21621;SDS011;10973;46.706;12.340;2022-12-19T15:21:05;17.93;;;13.27;;
21621;SDS011;10973;46.706;12.340;2022-12-19T15:23:40;22.87;;;14.73;;
21621;SDS011;10973;46.706;12.340;2022-12-19T15:26:11;23.70;;;15.33;;
21621;SDS011;10973;46.706;12.340;2022-12-19T15:28:45;29.73;;;17.43;;
21621;SDS011;10973;46.706;12.340;2022-12-19T15:31:33;31.37;;;19.50;;
21621;SDS011;10973;46.706;12.340;2022-12-19T15:36:56;61.20;;;32.30;;
21621;SDS011;10973;46.706;12.340;2022-12-19T15:39:23;79.67;;;42.93;;
21621;SDS011;10973;46.706;12.340;2022-12-19T15:41:51;130.33;;;61.67;;
21621;SDS011;10973;46.706;12.340;2022-12-19T15:44:27;181.27;;;85.90;;
21621;SDS011;10973;46.706;12.340;2022-12-19T15:47:18;66.53;;;36.50;;
21621;SDS011;10973;46.706;12.340;2022-12-19T15:50:01;45.63;;;25.00;;
21621;SDS011;10973;46.706;12.340;2022-12-19T15:52:48;32.43;;;21.40;;
21621;SDS011;10973;46.706;12.340;2022-12-19T15:55:18;24.97;;;18.20;;
21621;SDS011;10973;46.706;12.340;2022-12-19T15:57:58;98.13;;;47.77;;
21621;SDS011;10973;46.706;12.340;2022-12-19T16:00:31;192.80;;;82.10;;
21621;SDS011;10973;46.706;12.340;2022-12-19T16:03:01;129.60;;;58.63;;
21621;SDS011;10973;46.706;12.340;2022-12-19T16:05:49;163.37;;;73.60;;
21621;SDS011;10973;46.706;12.340;2022-12-19T16:08:18;120.73;;;55.57;;
21621;SDS011;10973;46.706;12.340;2022-12-19T16:10:50;106.20;;;48.73;;
21621;SDS011;10973;46.706;12.340;2022-12-19T16:13:28;96.73;;;47.27;;
21621;SDS011;10973;46.706;12.340;2022-12-19T16:15:59;89.90;;;44.67;;
21621;SDS011;10973;46.706;12.340;2022-12-19T16:18:38;167.00;;;71.80;;
21621;SDS011;10973;46.706;12.340;2022-12-19T16:21:05;122.60;;;54.70;;
21621;SDS011;10973;46.706;12.340;2022-12-19T16:23:42;97.40;;;46.80;;
21621;SDS011;10973;46.706;12.340;2022-12-19T16:28:59;68.57;;;39.60;;
21621;SDS011;10973;46.706;12.340;2022-12-19T16:31:27;51.93;;;30.10;;
21621;SDS011;10973;46.706;12.340;2022-12-19T16:33:54;37.20;;;24.07;;
21621;SDS011;10973;46.706;12.340;2022-12-19T16:36:22;36.50;;;22.83;;
21621;SDS011;10973;46.706;12.340;2022-12-19T16:38:49;43.47;;;28.30;;
21621;SDS011;10973;46.706;12.340;2022-12-19T16:41:18;34.40;;;22.97;;
21621;SDS011;10973;46.706;12.340;2022-12-19T16:43:50;32.30;;;21.40;;
21621;SDS011;10973;46.706;12.340;2022-12-19T16:46:19;31.00;;;22.03;;
21621;SDS011;10973;46.706;12.340;2022-12-19T16:48:48;31.37;;;22.90;;
21621;SDS011;10973;46.706;12.340;2022-12-19T16:51:17;28.43;;;19.83;;
21621;SDS011;10973;46.706;12.340;2022-12-19T16:53:50;25.43;;;18.20;;
21621;SDS011;10973;46.706;12.340;2022-12-19T16:56:31;29.27;;;20.63;;
21621;SDS011;10973;46.706;12.340;2022-12-19T16:59:05;51.93;;;31.97;;
21621;SDS011;10973;46.706;12.340;2022-12-19T17:01:40;54.33;;;33.57;;
21621;SDS011;10973;46.706;12.340;2022-12-19T17:04:11;54.73;;;33.13;;
21621;SDS011;10973;46.706;12.340;2022-12-19T17:06:43;61.63;;;39.80;;
21621;SDS011;10973;46.706;12.340;2022-12-19T17:09:14;59.77;;;41.27;;
21621;SDS011;10973;46.706;12.340;2022-12-19T17:11:55;60.10;;;40.13;;
21621;SDS011;10973;46.706;12.340;2022-12-19T17:14:25;52.17;;;34.23;;
21621;SDS011;10973;46.706;12.340;2022-12-19T17:16:56;43.73;;;29.60;;
21621;SDS011;10973;46.706;12.340;2022-12-19T17:19:26;40.40;;;27.83;;
21621;SDS011;10973;46.706;12.340;2022-12-19T17:22:02;36.07;;;25.73;;
21621;SDS011;10973;46.706;12.340;2022-12-19T17:24:37;36.73;;;27.57;;
21621;SDS011;10973;46.706;12.340;2022-12-19T17:27:04;31.73;;;22.90;;
21621;SDS011;10973;46.706;12.340;2022-12-19T17:29:32;28.17;;;21.13;;
21621;SDS011;10973;46.706;12.340;2022-12-19T17:32:00;32.67;;;21.07;;
21621;SDS011;10973;46.706;12.340;2022-12-19T17:34:29;28.90;;;20.07;;
21621;SDS011;10973;46.706;12.340;2022-12-19T17:37:02;25.87;;;19.60;;
21621;SDS011;10973;46.706;12.340;2022-12-19T17:39:40;16.10;;;12.50;;
21621;SDS011;10973;46.706;12.340;2022-12-19T17:42:18;15.87;;;12.80;;